Time;durP1;ratioP1;P1;durP2;ratioP2;P2;SDS_P1;SDS_P2;PMS_P1;PMS_P2;Temp;Humidity;BMP_temperature;BMP_pressure;BME280_temperature;BME280_humidity;BME280_pressure;Samples;Min_cycle;Max_cycle;Signal;HPM_P1;HPM_P2
2023/05/10 00:01:22;;;;;;;1.50;1.00;;;14.60;98.20;;;;;;4987352;28;20477;-75
2023/05/10 00:03:49;;;;;;;1.50;1.00;;;14.60;98.20;;;;;;5001233;28;20479;-76
2023/05/10 00:06:16;;;;;;;1.50;1.00;;;14.60;98.20;;;;;;4986021;28;20503;-73
2023/05/10 00:08:43;;;;;;;1.50;1.00;;;14.60;98.20;;;;;;4996340;28;20467;-75
2023/05/10 00:11:10;;;;;;;1.50;1.00;;;14.60;98.20;;;;;;4989624;28;20834;-74
2023/05/10 00:13:37;;;;;;;1.50;1.00;;;14.60;98.20;;;;;;4993893;28;20472;-76
2023/05/10 00:16:04;;;;;;;1.50;0.90;;;14.60;98.20;;;;;;4991037;28;20513;-75
2023/05/10 00:18:32;;;;;;;1.50;1.00;;;14.60;98.20;;;;;;4996344;28;20462;-75
2023/05/10 00:20:59;;;;;;;1.50;1.00;;;14.60;98.20;;;;;;4990357;28;20464;-75
2023/05/10 00:23:26;;;;;;;1.50;0.97;;;14.60;98.20;;;;;;4994171;28;20465;-74
2023/05/10 00:25:53;;;;;;;1.50;1.00;;;14.60;98.20;;;;;;4987519;28;20537;-75
2023/05/10 00:28:20;;;;;;;1.50;1.00;;;14.60;98.20;;;;;;4968659;28;20457;-74
2023/05/10 00:30:47;;;;;;;1.50;1.00;;;14.60;98.20;;;;;;4997778;28;20491;-74
2023/05/10 00:33:13;;;;;;;1.70;1.50;;;14.60;98.20;;;;;;4992294;28;20560;-74
2023/05/10 00:35:41;;;;;;;1.50;1.00;;;14.60;98.20;;;;;;5002542;28;20492;-76
2023/05/10 00:38:09;;;;;;;1.50;1.00;;;14.60;98.20;;;;;;4987819;28;20517;-76
2023/05/10 00:40:36;;;;;;;1.50;1.00;;;14.60;98.20;;;;;;4992882;28;20479;-76
2023/05/10 00:43:03;;;;;;;1.50;1.10;;;14.60;98.20;;;;;;4981493;28;20496;-74
2023/05/10 00:45:31;;;;;;;1.50;1.00;;;14.60;98.20;;;;;;4990435;28;20484;-75
2023/05/10 00:47:59;;;;;;;1.50;1.00;;;14.60;98.20;;;;;;4981247;28;20701;-75
2023/05/10 00:50:26;;;;;;;1.50;1.00;;;14.60;98.20;;;;;;4992570;28;20496;-76
2023/05/10 00:52:55;;;;;;;1.50;1.00;;;14.60;98.20;;;;;;4979242;28;20500;-74
2023/05/10 00:55:22;;;;;;;1.50;1.00;;;14.60;98.20;;;;;;4992384;28;20503;-75
2023/05/10 00:57:49;;;;;;;1.50;1.00;;;14.60;98.20;;;;;;4978047;28;21078;-75
2023/05/10 01:00:18;;;;;;;1.50;1.10;;;14.60;98.20;;;;;;4990987;28;20997;-75
2023/05/10 01:02:45;;;;;;;1.50;1.00;;;14.50;98.20;;;;;;4975277;28;20493;-75
2023/05/10 01:05:13;;;;;;;1.50;1.00;;;14.50;98.20;;;;;;4980812;28;20491;-75
2023/05/10 01:07:40;;;;;;;1.60;1.30;;;14.50;98.20;;;;;;4976655;28;20523;-74
2023/05/10 01:10:10;;;;;;;1.50;1.00;;;14.40;98.20;;;;;;4988403;28;20793;-75
2023/05/10 01:12:39;;;;;;;1.50;1.00;;;14.40;98.20;;;;;;4977492;28;20488;-75
2023/05/10 01:15:08;;;;;;;1.50;1.00;;;14.40;98.20;;;;;;4987182;28;20476;-74
2023/05/10 01:17:36;;;;;;;1.50;1.00;;;14.40;98.20;;;;;;4980580;28;20480;-75
2023/05/10 01:20:03;;;;;;;1.50;1.00;;;14.40;98.20;;;;;;4983928;28;20841;-75
2023/05/10 01:23:04;;;;;;;1.50;1.00;;;14.40;98.20;;;;;;4977380;28;21093;-73
2023/05/10 01:25:55;;;;;;;1.50;0.97;;;14.30;98.20;;;;;;4989434;28;20495;-73
2023/05/10 01:28:52;;;;;;;1.50;1.00;;;14.30;98.20;;;;;;4965453;28;20487;-75
2023/05/10 01:31:41;;;;;;;1.50;1.00;;;14.30;98.20;;;;;;4976671;28;20499;-75
2023/05/10 01:34:13;;;;;;;1.50;1.00;;;14.30;98.20;;;;;;4985856;28;20619;-76
2023/05/10 01:36:45;;;;;;;1.50;1.00;;;14.30;98.20;;;;;;4954447;28;20917;-76
2023/05/10 01:39:18;;;;;;;1.50;1.00;;;14.30;98.20;;;;;;4972614;28;20474;-75
2023/05/10 01:41:52;;;;;;;1.50;1.00;;;14.20;98.20;;;;;;4961520;28;20488;-74
2023/05/10 01:44:30;;;;;;;1.50;1.00;;;14.30;98.20;;;;;;4965750;28;20627;-75
2023/05/10 01:47:10;;;;;;;1.50;1.00;;;14.20;98.20;;;;;;4959055;28;21065;-75
2023/05/10 01:49:44;;;;;;;1.60;1.30;;;14.20;98.20;;;;;;4962674;28;20493;-74
2023/05/10 01:52:15;;;;;;;1.50;1.00;;;14.20;98.20;;;;;;4965604;28;20498;-75
2023/05/10 01:54:45;;;;;;;1.50;1.00;;;14.20;98.20;;;;;;4974068;28;20501;-75
2023/05/10 01:57:14;;;;;;;1.50;1.00;;;14.20;98.20;;;;;;4958975;28;20494;-76
2023/05/10 01:59:43;;;;;;;1.50;0.93;;;14.20;98.20;;;;;;4973170;28;20465;-75
2023/05/10 02:02:11;;;;;;;1.50;1.00;;;14.20;98.20;;;;;;4963100;28;20504;-76
2023/05/10 02:04:42;;;;;;;1.50;1.10;;;14.20;98.20;;;;;;4968661;28;20779;-77
2023/05/10 02:07:10;;;;;;;1.50;1.00;;;14.20;98.20;;;;;;4962060;28;20865;-75
2023/05/10 02:09:39;;;;;;;1.50;1.00;;;14.20;98.20;;;;;;4972708;28;20458;-76
2023/05/10 02:12:08;;;;;;;1.57;1.00;;;14.20;98.20;;;;;;4965245;28;20672;-76
2023/05/10 02:14:37;;;;;;;1.50;1.10;;;14.30;98.20;;;;;;4978971;28;20558;-76
2023/05/10 02:17:08;;;;;;;1.50;1.00;;;14.30;98.20;;;;;;4967518;28;20501;-75
2023/05/10 02:19:37;;;;;;;1.50;1.00;;;14.30;98.20;;;;;;4968778;28;20466;-76
2023/05/10 02:22:08;;;;;;;1.50;1.00;;;14.30;98.20;;;;;;4971449;28;20481;-75
2023/05/10 02:24:36;;;;;;;1.50;1.00;;;14.30;98.20;;;;;;4976913;28;20492;-75
2023/05/10 02:27:05;;;;;;;1.50;1.03;;;14.30;98.20;;;;;;4983965;28;20485;-76
2023/05/10 02:29:33;;;;;;;1.50;1.03;;;14.30;98.20;;;;;;4975937;28;20470;-77
2023/05/10 02:32:00;;;;;;;1.50;1.10;;;14.30;98.20;;;;;;4963044;28;20497;-76
2023/05/10 02:34:28;;;;;;;1.50;1.00;;;14.40;98.20;;;;;;4968097;28;20489;-76
2023/05/10 02:36:57;;;;;;;1.50;0.90;;;14.40;98.20;;;;;;4963206;28;20500;-77
2023/05/10 02:39:28;;;;;;;1.50;1.00;;;14.30;98.20;;;;;;4970672;28;20490;-77
2023/05/10 02:41:55;;;;;;;1.50;1.00;;;14.30;98.20;;;;;;4966380;28;20537;-75
2023/05/10 02:44:24;;;;;;;1.50;1.00;;;14.30;98.20;;;;;;4975709;28;21001;-76
2023/05/10 02:46:50;;;;;;;1.50;1.00;;;14.30;98.20;;;;;;4968425;28;20504;-76
2023/05/10 02:49:17;;;;;;;1.50;1.00;;;14.30;98.20;;;;;;4974765;28;20469;-76
2023/05/10 02:51:49;;;;;;;1.50;1.00;;;14.30;98.20;;;;;;4964538;28;20989;-77
2023/05/10 02:54:19;;;;;;;1.50;0.90;;;14.30;98.20;;;;;;4976816;28;20485;-77
2023/05/10 02:56:52;;;;;;;1.50;1.00;;;14.30;98.20;;;;;;4963627;28;20780;-75
2023/05/10 02:59:18;;;;;;;1.50;1.00;;;14.30;98.20;;;;;;4970959;28;20469;-76
2023/05/10 03:01:45;;;;;;;1.50;1.00;;;14.30;98.20;;;;;;4963803;28;20492;-76
2023/05/10 03:04:13;;;;;;;1.50;1.00;;;14.30;98.20;;;;;;4970207;28;20990;-76
2023/05/10 03:06:40;;;;;;;1.50;1.10;;;14.30;98.20;;;;;;4964413;28;20575;-75
2023/05/10 03:09:09;;;;;;;1.50;1.00;;;14.30;98.20;;;;;;4976573;28;20492;-77
2023/05/10 03:11:48;;;;;;;1.50;1.00;;;14.40;98.20;;;;;;4964055;28;20955;-75
2023/05/10 03:14:31;;;;;;;1.50;1.00;;;14.40;98.20;;;;;;4973643;28;20489;-77
2023/05/10 03:17:05;;;;;;;1.50;1.10;;;14.40;98.20;;;;;;4964371;28;20856;-77
2023/05/10 03:19:38;;;;;;;1.50;1.00;;;14.40;98.20;;;;;;4979957;28;20465;-76
2023/05/10 03:22:11;;;;;;;1.50;1.00;;;14.40;98.20;;;;;;4968985;28;20776;-77
2023/05/10 03:24:39;;;;;;;1.50;1.00;;;14.40;98.20;;;;;;4966130;28;20501;-77
2023/05/10 03:27:06;;;;;;;1.50;1.00;;;14.40;98.20;;;;;;4961584;28;20486;-76
2023/05/10 03:29:35;;;;;;;1.50;1.00;;;14.40;98.20;;;;;;4976010;28;20472;-76
2023/05/10 03:32:02;;;;;;;1.50;1.00;;;14.30;98.20;;;;;;4964630;28;20727;-76
2023/05/10 03:34:31;;;;;;;1.50;1.10;;;14.30;98.20;;;;;;4965649;28;20497;-77
2023/05/10 03:36:58;;;;;;;1.50;1.00;;;14.30;98.20;;;;;;4967098;28;20485;-77
2023/05/10 03:39:25;;;;;;;1.50;1.03;;;14.30;98.20;;;;;;4970694;28;20466;-77
2023/05/10 03:41:51;;;;;;;1.50;1.00;;;14.40;98.20;;;;;;4966708;28;20496;-77
2023/05/10 03:44:18;;;;;;;1.50;1.00;;;14.40;98.20;;;;;;4964775;28;20482;-76
2023/05/10 03:46:46;;;;;;;1.50;1.00;;;14.40;98.20;;;;;;4974910;28;21010;-77
2023/05/10 03:49:13;;;;;;;1.50;1.00;;;14.40;98.20;;;;;;4995908;28;20469;-77
2023/05/10 03:51:40;;;;;;;1.50;1.00;;;14.40;98.20;;;;;;4983345;28;20925;-77
2023/05/10 03:54:06;;;;;;;1.50;1.00;;;14.40;98.20;;;;;;4994276;28;20492;-76
2023/05/10 03:56:33;;;;;;;1.50;1.10;;;14.40;98.20;;;;;;4976988;28;20481;-76
2023/05/10 03:59:00;;;;;;;1.50;1.00;;;14.40;98.20;;;;;;4995076;28;20480;-77
2023/05/10 04:01:27;;;;;;;1.53;1.00;;;14.40;98.20;;;;;;4984389;28;21057;-77
2023/05/10 04:03:55;;;;;;;1.50;1.00;;;14.40;98.20;;;;;;4993677;28;20478;-77
2023/05/10 04:06:22;;;;;;;1.53;1.10;;;14.40;98.20;;;;;;4985424;28;20504;-76
2023/05/10 04:08:48;;;;;;;1.50;1.00;;;14.40;98.20;;;;;;4992803;28;20464;-77
2023/05/10 04:11:15;;;;;;;1.50;1.00;;;14.40;98.20;;;;;;4986027;28;20979;-76
2023/05/10 04:13:42;;;;;;;1.50;1.00;;;14.40;98.20;;;;;;4990551;28;20461;-77
2023/05/10 04:16:09;;;;;;;1.60;1.10;;;14.40;98.20;;;;;;4983585;28;20508;-77
2023/05/10 04:18:36;;;;;;;1.50;1.00;;;14.40;98.20;;;;;;4996914;28;20471;-77
2023/05/10 04:21:04;;;;;;;1.50;1.00;;;14.40;98.20;;;;;;4986719;28;20483;-77
2023/05/10 04:23:31;;;;;;;1.50;1.00;;;14.40;98.20;;;;;;4997480;28;20471;-77
2023/05/10 04:26:01;;;;;;;1.50;1.00;;;14.40;98.20;;;;;;4985176;28;20513;-74
2023/05/10 04:28:28;;;;;;;1.50;1.00;;;14.50;98.20;;;;;;4969433;28;20899;-76
2023/05/10 04:31:02;;;;;;;2.33;2.10;;;14.50;98.20;;;;;;4986916;28;20486;-77
2023/05/10 04:33:29;;;;;;;1.50;1.00;;;14.50;98.20;;;;;;4997552;28;20468;-76
2023/05/10 04:35:55;;;;;;;1.50;1.00;;;14.50;98.20;;;;;;4987394;28;20486;-77
2023/05/10 04:38:24;;;;;;;1.50;1.10;;;14.50;98.20;;;;;;4992810;28;20496;-76
2023/05/10 04:40:51;;;;;;;1.50;1.00;;;14.50;98.20;;;;;;4975244;28;20480;-76
2023/05/10 04:43:18;;;;;;;1.50;1.00;;;14.50;98.20;;;;;;4976107;28;20861;-77
2023/05/10 04:45:44;;;;;;;1.50;0.90;;;14.50;98.20;;;;;;4980802;28;20492;-76
2023/05/10 04:48:11;;;;;;;1.50;1.00;;;14.50;98.20;;;;;;4955391;28;20562;-76
2023/05/10 04:50:38;;;;;;;1.50;1.00;;;14.60;98.20;;;;;;4984283;28;21012;-77
2023/05/10 04:53:05;;;;;;;1.50;1.00;;;14.60;98.20;;;;;;4972339;28;20484;-77
2023/05/10 04:55:33;;;;;;;1.50;1.00;;;14.60;98.20;;;;;;4991701;28;20489;-77
2023/05/10 04:58:00;;;;;;;1.50;1.00;;;14.60;98.20;;;;;;4974635;28;20580;-77
2023/05/10 05:00:27;;;;;;;1.50;0.90;;;14.60;98.20;;;;;;4983502;28;20461;-76
2023/05/10 05:02:54;;;;;;;1.50;1.00;;;14.50;98.20;;;;;;4961646;28;20536;-75
2023/05/10 05:05:20;;;;;;;1.50;1.00;;;14.50;98.20;;;;;;4982211;28;20485;-76
2023/05/10 05:07:47;;;;;;;1.50;1.03;;;14.50;98.20;;;;;;4965238;28;20840;-75
2023/05/10 05:10:14;;;;;;;1.50;1.00;;;14.50;98.20;;;;;;4984219;28;20876;-76
2023/05/10 05:12:43;;;;;;;1.50;1.00;;;14.60;98.20;;;;;;4971742;28;21058;-74
2023/05/10 05:15:10;;;;;;;1.50;1.00;;;14.60;98.20;;;;;;4987475;28;20918;-76
2023/05/10 05:17:37;;;;;;;1.50;1.00;;;14.60;98.20;;;;;;4977163;28;20516;-77
2023/05/10 05:20:05;;;;;;;1.53;1.00;;;14.60;98.20;;;;;;4986223;28;20556;-77
2023/05/10 05:22:32;;;;;;;1.50;0.90;;;14.70;98.20;;;;;;4970660;28;20489;-75
2023/05/10 05:24:59;;;;;;;1.50;0.90;;;14.70;98.20;;;;;;4986103;28;20489;-77
2023/05/10 05:27:27;;;;;;;1.50;0.90;;;14.80;98.20;;;;;;4971816;28;20489;-75
2023/05/10 05:29:56;;;;;;;1.50;0.90;;;14.80;98.20;;;;;;4986649;28;20747;-76
2023/05/10 05:32:22;;;;;;;1.50;0.90;;;14.80;98.20;;;;;;4950074;28;20490;-76
2023/05/10 05:34:50;;;;;;;1.50;1.00;;;14.80;98.20;;;;;;4976509;28;21026;-77
2023/05/10 05:37:18;;;;;;;1.50;1.00;;;14.80;98.20;;;;;;4974926;28;20878;-75
2023/05/10 05:39:46;;;;;;;1.50;1.00;;;14.70;98.20;;;;;;4982552;28;20564;-75
2023/05/10 05:42:14;;;;;;;1.50;1.00;;;14.70;98.20;;;;;;4968230;28;20941;-75
2023/05/10 05:44:41;;;;;;;1.50;0.90;;;14.70;98.20;;;;;;4980899;28;20543;-76
2023/05/10 05:47:10;;;;;;;1.50;1.13;;;14.70;98.20;;;;;;4976686;28;20683;-77
2023/05/10 05:49:37;;;;;;;1.50;0.90;;;14.70;98.20;;;;;;4988588;28;20970;-77
2023/05/10 05:52:05;;;;;;;1.57;1.00;;;14.70;98.20;;;;;;4975854;28;20574;-75
2023/05/10 05:54:32;;;;;;;1.50;1.00;;;14.70;98.20;;;;;;4984095;28;20500;-75
2023/05/10 05:57:00;;;;;;;1.50;1.03;;;14.70;98.20;;;;;;4973745;28;20485;-77
2023/05/10 05:59:27;;;;;;;1.50;1.00;;;14.80;98.20;;;;;;4986808;28;20916;-75
2023/05/10 06:01:54;;;;;;;1.50;1.00;;;14.80;98.20;;;;;;4969468;28;20491;-77
2023/05/10 06:04:22;;;;;;;1.50;0.97;;;14.80;98.20;;;;;;4978196;28;21008;-75
2023/05/10 06:06:49;;;;;;;1.50;0.90;;;14.80;98.20;;;;;;4971793;28;20477;-76
2023/05/10 06:09:16;;;;;;;1.50;1.03;;;14.80;98.20;;;;;;4980974;28;20469;-76
2023/05/10 06:11:43;;;;;;;1.50;1.00;;;14.80;98.20;;;;;;4970714;28;20489;-76
2023/05/10 06:14:10;;;;;;;1.50;1.00;;;14.80;98.20;;;;;;4976112;28;20857;-75
2023/05/10 06:16:37;;;;;;;1.50;1.00;;;14.80;98.20;;;;;;4971070;28;20494;-76
2023/05/10 06:19:04;;;;;;;1.53;1.00;;;14.80;98.20;;;;;;4983362;28;20465;-76
2023/05/10 06:21:32;;;;;;;1.50;1.00;;;14.80;98.20;;;;;;4971952;28;20659;-76
2023/05/10 06:23:59;;;;;;;1.50;1.00;;;14.80;98.20;;;;;;4981048;28;20495;-78
2023/05/10 06:26:26;;;;;;;1.50;0.97;;;14.80;98.20;;;;;;4974300;28;20494;-77
2023/05/10 06:28:54;;;;;;;1.53;1.00;;;14.80;98.20;;;;;;4984112;28;20453;-77
2023/05/10 06:31:21;;;;;;;1.57;1.10;;;14.80;98.20;;;;;;4976194;28;20504;-77
2023/05/10 06:33:48;;;;;;;1.50;0.90;;;14.80;98.20;;;;;;4985365;28;20765;-77
2023/05/10 06:36:15;;;;;;;1.50;0.90;;;14.80;98.20;;;;;;4976439;28;20489;-78
2023/05/10 06:38:43;;;;;;;1.50;1.00;;;14.70;98.20;;;;;;4984116;28;20472;-76
2023/05/10 06:41:10;;;;;;;1.50;0.90;;;14.70;98.20;;;;;;4971757;28;20918;-76
2023/05/10 06:43:39;;;;;;;1.50;1.00;;;14.70;98.20;;;;;;4981259;28;20476;-77
2023/05/10 06:46:07;;;;;;;1.50;1.00;;;14.70;98.20;;;;;;4972561;28;20557;-77
2023/05/10 06:48:34;;;;;;;1.50;1.00;;;14.60;98.20;;;;;;4982357;28;20474;-76
2023/05/10 06:51:01;;;;;;;1.50;1.00;;;14.60;98.20;;;;;;4969502;28;20469;-76
2023/05/10 06:53:28;;;;;;;1.50;1.10;;;14.70;98.20;;;;;;4971611;28;20477;-77
2023/05/10 06:55:56;;;;;;;1.50;1.00;;;14.70;98.20;;;;;;4967032;28;20499;-77
2023/05/10 06:58:23;;;;;;;1.50;1.00;;;14.80;98.20;;;;;;4980336;28;20552;-77
2023/05/10 07:00:50;;;;;;;1.50;1.00;;;14.80;98.20;;;;;;4971487;28;20465;-77
2023/05/10 07:03:17;;;;;;;1.50;1.00;;;14.90;98.20;;;;;;4970228;28;20466;-76
2023/05/10 07:05:43;;;;;;;1.50;0.93;;;15.00;98.20;;;;;;4984268;28;20951;-75
2023/05/10 07:08:10;;;;;;;1.50;0.90;;;15.10;98.20;;;;;;4970535;28;20608;-77
2023/05/10 07:10:37;;;;;;;1.50;1.00;;;15.20;98.20;;;;;;4992215;28;20472;-75
2023/05/10 07:13:05;;;;;;;1.50;1.00;;;15.20;98.20;;;;;;4970395;28;20552;-77
2023/05/10 07:15:33;;;;;;;1.50;1.00;;;15.30;98.20;;;;;;4984376;28;20477;-76
2023/05/10 07:18:00;;;;;;;1.50;1.00;;;15.30;98.20;;;;;;4960360;28;20487;-76
2023/05/10 07:20:28;;;;;;;1.57;1.10;;;15.30;98.20;;;;;;4985613;28;21240;-76
2023/05/10 07:22:55;;;;;;;1.50;1.00;;;15.30;98.20;;;;;;4969173;28;20481;-76
2023/05/10 07:25:22;;;;;;;1.50;0.90;;;15.30;98.20;;;;;;4980291;28;20481;-75
2023/05/10 07:27:50;;;;;;;1.50;1.00;;;15.30;98.20;;;;;;4972589;28;20480;-74
2023/05/10 07:30:19;;;;;;;1.50;0.90;;;15.40;98.20;;;;;;4981351;28;20536;-75
2023/05/10 07:32:47;;;;;;;1.50;1.00;;;15.50;98.20;;;;;;4962160;28;21040;-75
2023/05/10 07:35:14;;;;;;;1.50;1.00;;;15.50;98.20;;;;;;4980792;28;20500;-74
2023/05/10 07:37:41;;;;;;;1.50;1.00;;;15.50;98.20;;;;;;4969632;28;21017;-75
2023/05/10 07:40:10;;;;;;;1.50;0.90;;;15.60;98.20;;;;;;4980324;28;20466;-74
2023/05/10 07:42:38;;;;;;;1.50;0.93;;;15.70;98.20;;;;;;4970341;28;21005;-75
2023/05/10 07:45:06;;;;;;;1.50;1.00;;;15.70;98.20;;;;;;4979717;28;20857;-74
2023/05/10 07:47:34;;;;;;;1.50;1.00;;;15.70;98.20;;;;;;4972693;28;20618;-75
2023/05/10 07:50:01;;;;;;;1.50;1.00;;;15.70;98.20;;;;;;4980739;28;20468;-75
2023/05/10 07:52:29;;;;;;;1.50;1.00;;;15.60;98.20;;;;;;4972058;28;20507;-75
2023/05/10 07:54:56;;;;;;;1.50;1.00;;;15.60;98.20;;;;;;4980808;28;20501;-73
2023/05/10 07:57:25;;;;;;;1.50;1.00;;;15.60;98.20;;;;;;4968590;28;21353;-75
2023/05/10 07:59:52;;;;;;;1.50;1.00;;;15.60;98.20;;;;;;4981008;28;20557;-73
2023/05/10 08:02:19;;;;;;;1.50;1.00;;;15.70;98.20;;;;;;4969372;28;20485;-75
2023/05/10 08:04:48;;;;;;;1.50;1.00;;;15.60;98.20;;;;;;4979871;28;21323;-74
2023/05/10 08:07:15;;;;;;;1.50;1.00;;;15.60;98.20;;;;;;4968784;28;21127;-75
2023/05/10 08:09:42;;;;;;;1.50;0.90;;;15.60;98.20;;;;;;4982824;28;20468;-74
2023/05/10 08:12:09;;;;;;;1.50;0.90;;;15.60;98.20;;;;;;4966811;28;20571;-75
2023/05/10 08:14:36;;;;;;;1.60;1.30;;;15.60;98.20;;;;;;4978979;28;20857;-75
2023/05/10 08:17:04;;;;;;;1.50;1.00;;;15.70;98.20;;;;;;4969935;28;20492;-76
2023/05/10 08:19:31;;;;;;;1.60;1.00;;;15.80;98.20;;;;;;4979472;28;20493;-76
2023/05/10 08:22:00;;;;;;;1.50;1.00;;;15.80;98.20;;;;;;4967867;28;21467;-76
2023/05/10 08:24:27;;;;;;;1.53;1.00;;;15.90;98.20;;;;;;4977307;28;20542;-76
2023/05/10 08:26:54;;;;;;;1.50;1.00;;;16.00;98.20;;;;;;4967590;28;20492;-75
2023/05/10 08:29:22;;;;;;;1.50;1.00;;;16.10;98.20;;;;;;4982675;28;20465;-75
2023/05/10 08:31:49;;;;;;;1.50;0.90;;;16.20;98.20;;;;;;4969725;28;20927;-76
2023/05/10 08:34:16;;;;;;;1.50;1.00;;;16.30;98.20;;;;;;4980874;28;20907;-74
2023/05/10 08:36:43;;;;;;;1.53;1.00;;;16.40;98.20;;;;;;4973081;28;20917;-74
2023/05/10 08:39:11;;;;;;;1.57;1.00;;;16.60;98.20;;;;;;4984119;28;20523;-74
2023/05/10 08:41:40;;;;;;;1.50;1.00;;;16.80;98.20;;;;;;4967419;28;20512;-74
2023/05/10 08:44:09;;;;;;;1.50;1.00;;;16.90;98.20;;;;;;4974071;28;20588;-75
2023/05/10 08:46:39;;;;;;;1.50;1.00;;;17.10;98.20;;;;;;4967610;28;20579;-75
2023/05/10 08:49:08;;;;;;;1.53;0.97;;;17.20;98.20;;;;;;4977843;28;20526;-75
2023/05/10 08:51:39;;;;;;;1.50;0.90;;;17.20;98.20;;;;;;4971163;28;20489;-74
2023/05/10 08:54:07;;;;;;;1.50;0.90;;;17.20;98.20;;;;;;4983442;28;20487;-74
2023/05/10 08:56:36;;;;;;;1.50;0.97;;;17.10;98.20;;;;;;4965750;28;20603;-75
2023/05/10 08:59:03;;;;;;;1.50;1.00;;;17.00;98.20;;;;;;4974744;28;20539;-74
2023/05/10 09:01:33;;;;;;;1.50;1.00;;;17.00;98.20;;;;;;4974002;28;20488;-74
2023/05/10 09:04:01;;;;;;;1.50;0.90;;;17.00;98.20;;;;;;4983774;28;20485;-75
2023/05/10 09:06:28;;;;;;;1.60;1.30;;;16.90;98.20;;;;;;4969323;28;21088;-74
2023/05/10 09:08:56;;;;;;;1.50;0.97;;;16.90;98.20;;;;;;4977460;28;20501;-74
2023/05/10 09:11:24;;;;;;;1.50;0.90;;;16.90;98.20;;;;;;4971501;28;20493;-74
2023/05/10 09:13:53;;;;;;;1.50;1.00;;;16.90;98.20;;;;;;4979944;28;20489;-74
2023/05/10 09:16:21;;;;;;;1.50;1.00;;;16.80;98.20;;;;;;4970623;28;20534;-75
2023/05/10 09:18:49;;;;;;;1.50;1.00;;;16.80;98.20;;;;;;4968243;28;20468;-73
2023/05/10 09:21:16;;;;;;;1.50;1.00;;;16.80;98.20;;;;;;4967519;28;20864;-76
2023/05/10 09:23:44;;;;;;;1.50;1.00;;;16.70;98.20;;;;;;4973692;28;21004;-74
2023/05/10 09:26:12;;;;;;;1.50;1.00;;;16.70;98.20;;;;;;4969192;28;20715;-75
2023/05/10 09:28:53;;;;;;;1.50;1.00;;;16.60;98.20;;;;;;4970851;28;20560;-73
2023/05/10 09:31:20;;;;;;;1.50;0.90;;;16.60;98.20;;;;;;4967683;28;20892;-73
2023/05/10 09:33:49;;;;;;;1.57;1.00;;;16.60;98.20;;;;;;4980101;28;20511;-74
2023/05/10 09:36:16;;;;;;;1.50;0.90;;;16.50;98.20;;;;;;4973104;28;20912;-75
2023/05/10 09:38:48;;;;;;;1.50;0.90;;;16.40;98.20;;;;;;4970965;28;20469;-75
2023/05/10 09:41:19;;;;;;;1.53;1.00;;;16.30;98.20;;;;;;4968347;28;20884;-76
2023/05/10 09:43:46;;;;;;;1.50;0.90;;;16.20;98.20;;;;;;4975386;28;20457;-76
2023/05/10 09:46:16;;;;;;;1.50;0.97;;;16.20;98.20;;;;;;4973764;28;20540;-75
2023/05/10 09:48:45;;;;;;;1.50;0.90;;;16.10;98.20;;;;;;4976308;28;20460;-76
2023/05/10 09:51:19;;;;;;;1.50;1.00;;;16.10;98.20;;;;;;4974237;28;21021;-76
2023/05/10 09:53:46;;;;;;;1.50;1.00;;;16.20;98.20;;;;;;4982066;28;20634;-75
2023/05/10 09:56:14;;;;;;;1.50;1.00;;;16.30;98.20;;;;;;4970307;28;20507;-74
2023/05/10 09:58:41;;;;;;;1.50;0.90;;;16.40;98.20;;;;;;4981564;28;20472;-76
2023/05/10 10:01:12;;;;;;;1.70;1.20;;;16.50;98.20;;;;;;4974720;28;20490;-75
2023/05/10 10:03:45;;;;;;;1.50;0.97;;;16.50;98.20;;;;;;4982448;28;21257;-75
2023/05/10 10:06:12;;;;;;;1.53;1.00;;;16.60;98.20;;;;;;4970310;28;20481;-75
2023/05/10 10:08:40;;;;;;;1.50;0.93;;;16.60;98.20;;;;;;4972268;28;20470;-75
2023/05/10 10:11:07;;;;;;;1.50;1.00;;;16.70;98.20;;;;;;4968081;28;20478;-74
2023/05/10 10:13:34;;;;;;;1.50;0.90;;;16.80;98.20;;;;;;4980444;28;20488;-76
2023/05/10 10:16:01;;;;;;;1.50;0.90;;;16.90;98.20;;;;;;4972690;28;20488;-75
2023/05/10 10:18:30;;;;;;;1.50;1.00;;;17.00;98.20;;;;;;4976730;28;20457;-76
2023/05/10 10:20:59;;;;;;;1.50;1.00;;;17.10;98.20;;;;;;4971108;28;20465;-75
2023/05/10 10:23:28;;;;;;;1.50;0.90;;;17.10;98.20;;;;;;4980757;28;20465;-75
2023/05/10 10:25:56;;;;;;;1.50;0.90;;;17.10;98.20;;;;;;4975015;28;20485;-75
2023/05/10 10:28:33;;;;;;;1.50;0.90;;;17.10;98.20;;;;;;4982138;28;20480;-75
2023/05/10 10:31:14;;;;;;;1.50;0.90;;;17.20;98.20;;;;;;4973436;28;20467;-74
2023/05/10 10:33:57;;;;;;;1.50;0.90;;;17.30;98.20;;;;;;4981574;28;20495;-76
2023/05/10 10:36:27;;;;;;;1.50;1.00;;;17.40;98.20;;;;;;4977821;28;20492;-77
2023/05/10 10:39:03;;;;;;;1.50;0.90;;;17.60;98.20;;;;;;4981313;28;20477;-77
2023/05/10 10:41:35;;;;;;;2.53;1.40;;;17.70;98.20;;;;;;4970478;28;21046;-76
2023/05/10 10:44:25;;;;;;;1.50;0.90;;;17.80;98.20;;;;;;4981827;28;21030;-76
2023/05/10 10:47:05;;;;;;;1.50;0.90;;;17.90;98.20;;;;;;4969645;28;20501;-77
2023/05/10 10:49:33;;;;;;;1.50;0.90;;;17.90;98.20;;;;;;4983186;28;20465;-77
2023/05/10 10:52:26;;;;;;;1.50;0.90;;;17.80;98.20;;;;;;4970637;28;20484;-77
2023/05/10 10:54:58;;;;;;;1.50;0.90;;;17.80;98.20;;;;;;4986775;28;20489;-78
2023/05/10 10:57:33;;;;;;;1.50;0.90;;;17.70;98.20;;;;;;4975490;28;20509;-77
2023/05/10 11:00:27;;;;;;;1.50;0.90;;;17.80;98.20;;;;;;4988576;28;20489;-77
2023/05/10 11:02:57;;;;;;;1.50;1.00;;;17.80;98.20;;;;;;4971721;28;20564;-77
2023/05/10 11:05:39;;;;;;;1.53;1.00;;;17.80;98.20;;;;;;4980757;28;21141;-77
2023/05/10 11:08:14;;;;;;;1.50;1.00;;;17.90;98.20;;;;;;4970465;28;20576;-77
2023/05/10 11:10:51;;;;;;;1.50;0.90;;;17.90;98.20;;;;;;4990591;28;20497;-77
2023/05/10 11:13:50;;;;;;;1.50;0.90;;;18.00;98.20;;;;;;4956708;28;20489;-77
2023/05/10 11:16:24;;;;;;;1.50;0.90;;;18.10;98.20;;;;;;4992525;28;20493;-77
2023/05/10 11:18:58;;;;;;;1.50;0.90;;;18.30;98.20;;;;;;5028169;28;20476;-78
2023/05/10 11:21:27;;;;;;;1.50;0.90;;;18.50;98.20;;;;;;4977970;28;20568;-78
2023/05/10 11:24:20;;;;;;;1.60;1.23;;;18.70;98.20;;;;;;5002320;28;20461;-78
2023/05/10 11:26:51;;;;;;;1.50;0.90;;;18.90;98.20;;;;;;4994141;28;20480;-77
2023/05/10 11:29:18;;;;;;;1.50;0.90;;;18.90;98.20;;;;;;4988226;28;20465;-78
2023/05/10 11:31:47;;;;;;;1.50;0.90;;;18.80;98.20;;;;;;4982688;28;20488;-78
2023/05/10 11:34:24;;;;;;;1.50;0.90;;;18.70;98.20;;;;;;4999975;28;21033;-77
2023/05/10 11:36:54;;;;;;;1.83;1.70;;;18.60;98.20;;;;;;4992699;28;20557;-77
2023/05/10 11:39:26;;;;;;;1.50;0.90;;;18.40;98.20;;;;;;4980544;28;20464;-77
2023/05/10 11:42:18;;;;;;;1.50;0.90;;;18.20;98.20;;;;;;4949230;28;20691;-76
2023/05/10 11:44:47;;;;;;;1.50;0.90;;;18.00;98.20;;;;;;4965893;28;21003;-77
2023/05/10 11:47:16;;;;;;;1.50;0.90;;;17.90;98.20;;;;;;4968142;28;20559;-76
2023/05/10 11:49:45;;;;;;;1.50;0.90;;;17.80;98.20;;;;;;4978472;28;20465;-76
2023/05/10 11:52:12;;;;;;;1.50;1.00;;;17.70;98.20;;;;;;4966514;28;20489;-75
2023/05/10 11:54:47;;;;;;;1.50;0.90;;;17.60;98.20;;;;;;4978180;28;20504;-75
2023/05/10 11:57:14;;;;;;;1.50;0.90;;;17.60;98.20;;;;;;4973551;28;20518;-75
2023/05/10 11:59:41;;;;;;;1.60;1.20;;;17.60;98.20;;;;;;4976181;28;21354;-77
2023/05/10 12:02:11;;;;;;;1.50;1.00;;;17.50;98.20;;;;;;4958257;28;20887;-78
2023/05/10 12:04:39;;;;;;;1.50;0.90;;;17.60;98.20;;;;;;4980878;28;20488;-79
2023/05/10 12:07:06;;;;;;;1.50;0.90;;;17.70;98.20;;;;;;4965648;28;20488;-77
2023/05/10 12:10:03;;;;;;;1.50;0.90;;;17.80;98.20;;;;;;4972775;28;20495;-77
2023/05/10 12:12:37;;;;;;;1.50;0.90;;;18.00;98.20;;;;;;4980576;28;20489;-77
2023/05/10 12:15:23;;;;;;;1.50;0.90;;;18.20;98.20;;;;;;5057677;23;20572;-78
2023/05/10 12:17:51;;;;;;;1.53;0.90;;;18.40;98.20;;;;;;4963381;28;20935;-77
2023/05/10 12:20:21;;;;;;;1.50;0.90;;;18.70;98.20;;;;;;4972127;28;20545;-77
2023/05/10 12:22:56;;;;;;;1.50;0.90;;;18.90;98.20;;;;;;4963401;28;20473;-78
2023/05/10 12:25:30;;;;;;;1.50;0.90;;;19.00;98.20;;;;;;4977764;28;20492;-78
2023/05/10 12:28:00;;;;;;;1.57;1.00;;;19.00;98.20;;;;;;4953925;28;20866;-79
2023/05/10 12:30:29;;;;;;;1.50;0.90;;;19.00;98.20;;;;;;4969992;28;20557;-80
2023/05/10 12:33:02;;;;;;;1.50;0.90;;;19.00;98.20;;;;;;4944983;28;20694;-77
2023/05/10 12:35:32;;;;;;;1.50;0.90;;;18.90;98.20;;;;;;4967681;28;20494;-77
2023/05/10 12:37:59;;;;;;;1.50;0.90;;;18.80;98.20;;;;;;4961545;28;20485;-76
2023/05/10 12:40:27;;;;;;;1.50;0.90;;;18.90;98.20;;;;;;4968438;28;20466;-77
2023/05/10 12:42:58;;;;;;;1.50;0.90;;;18.90;98.20;;;;;;4956200;28;20931;-79
2023/05/10 12:49:03;;;;;;;1.50;0.90;;;19.00;98.20;;;;;;4886285;28;20466;-77
2023/05/10 12:51:30;;;;;;;1.50;0.90;;;19.00;98.20;;;;;;4963669;28;20490;-77
2023/05/10 12:53:57;;;;;;;1.50;0.90;;;19.10;98.20;;;;;;4982443;28;20491;-77
2023/05/10 12:56:29;;;;;;;1.50;0.90;;;19.10;98.20;;;;;;4961291;28;20496;-77
2023/05/10 12:58:58;;;;;;;1.50;1.00;;;19.10;98.20;;;;;;4983885;28;20478;-78
2023/05/10 13:01:27;;;;;;;1.50;0.90;;;19.20;98.20;;;;;;4960650;28;20577;-78
2023/05/10 13:03:54;;;;;;;1.50;0.90;;;19.30;98.20;;;;;;4971978;28;20469;-79